Time;durP1;ratioP1;P1;durP2;ratioP2;P2;SDS_P1;SDS_P2;PMS_P1;PMS_P2;Temp;Humidity;BMP_temperature;BMP_pressure;BME280_temperature;BME280_humidity;BME280_pressure;Samples;Min_cycle;Max_cycle;Signal;HPM_P1;HPM_P2
2022/07/04 00:00:23;;;;;;;5.65;4.40;;;;;;;19.20;49.44;99078.47;5051545;28;20049;-60
2022/07/04 00:02:49;;;;;;;8.70;4.90;;;;;;;19.19;49.16;99080.38;5051451;28;20041;-61
2022/07/04 00:05:16;;;;;;;5.85;4.57;;;;;;;19.18;49.30;99084.16;5051746;28;20044;-61
2022/07/04 00:07:45;;;;;;;7.35;4.63;;;;;;;19.16;49.84;99082.88;5051900;28;20051;-61
2022/07/04 00:10:13;;;;;;;8.52;4.43;;;;;;;19.14;50.28;99079.69;5035261;28;20041;-60
2022/07/04 00:12:39;;;;;;;7.72;4.82;;;;;;;19.14;50.12;99077.78;5013904;28;20090;-59
2022/07/04 00:15:06;;;;;;;8.38;4.43;;;;;;;19.09;50.50;99072.53;5031671;28;20364;-60
2022/07/04 00:17:32;;;;;;;8.07;4.70;;;;;;;19.12;50.46;99073.81;5036198;28;20414;-61
2022/07/04 00:19:58;;;;;;;8.30;4.90;;;;;;;19.16;50.69;99070.22;5051589;28;20037;-60
2022/07/04 00:22:24;;;;;;;6.95;5.15;;;;;;;19.22;50.66;99070.91;5051503;28;20048;-61
2022/07/04 00:24:50;;;;;;;7.55;5.10;;;;;;;19.26;50.67;99071.88;5051469;28;20477;-60
2022/07/04 00:27:15;;;;;;;9.27;4.88;;;;;;;19.25;50.53;99071.09;5050086;28;20045;-59
2022/07/04 00:29:41;;;;;;;9.18;4.85;;;;;;;19.18;51.05;99070.72;5049659;28;20045;-61
2022/07/04 00:32:07;;;;;;;6.07;4.80;;;;;;;19.10;51.04;99068.75;5044230;28;20038;-61
2022/07/04 00:34:33;;;;;;;9.77;5.18;;;;;;;19.06;51.53;99071.25;5031486;28;20045;-61
2022/07/04 00:36:59;;;;;;;8.25;5.30;;;;;;;19.03;51.83;99069.16;5032446;28;20045;-60
2022/07/04 00:39:24;;;;;;;6.85;5.85;;;;;;;18.97;52.19;99083.78;5031271;28;20038;-60
2022/07/04 00:41:50;;;;;;;9.38;5.55;;;;;;;18.92;52.05;99072.34;5031341;28;20526;-60
2022/07/04 00:44:16;;;;;;;6.25;5.25;;;;;;;18.88;52.16;99074.03;5031295;28;20284;-61
2022/07/04 00:46:43;;;;;;;9.05;5.53;;;;;;;18.86;52.34;99071.66;5030261;28;20046;-60
2022/07/04 00:49:10;;;;;;;7.18;5.03;;;;;;;18.89;52.16;99065.69;5043038;28;20040;-61
2022/07/04 00:51:38;;;;;;;6.07;4.85;;;;;;;18.87;52.21;99075.94;5033169;28;20136;-60
2022/07/04 00:54:04;;;;;;;6.85;4.72;;;;;;;18.87;52.30;99073.25;5050952;28;20077;-61
2022/07/04 00:56:30;;;;;;;6.25;4.22;;;;;;;18.79;52.34;99068.56;5050051;28;20478;-61
2022/07/04 00:58:58;;;;;;;9.00;4.85;;;;;;;18.79;52.70;99076.63;5031421;28;20120;-61
2022/07/04 01:01:25;;;;;;;5.10;4.60;;;;;;;18.72;52.93;99082.38;5031166;28;20076;-62
2022/07/04 01:03:51;;;;;;;6.70;4.50;;;;;;;18.70;53.18;99078.38;5030981;28;20048;-62
2022/07/04 01:06:18;;;;;;;5.82;4.65;;;;;;;18.71;53.22;99086.16;5030079;28;20042;-63
2022/07/04 01:08:44;;;;;;;6.28;5.03;;;;;;;18.75;53.35;99078.31;5041916;28;20126;-61
2022/07/04 01:11:10;;;;;;;5.40;4.65;;;;;;;18.81;53.11;99085.97;5050813;28;20049;-61
2022/07/04 01:13:36;;;;;;;6.60;4.90;;;;;;;18.95;52.70;99085.19;5051000;28;20047;-61
2022/07/04 01:16:03;;;;;;;7.82;5.03;;;;;;;19.08;52.71;99092.41;5053723;28;20041;-61
2022/07/04 01:18:30;;;;;;;7.63;4.68;;;;;;;19.23;52.28;99091.31;5054801;28;20561;-60
2022/07/04 01:20:56;;;;;;;6.70;4.40;;;;;;;19.38;51.54;99103.63;5054603;28;20047;-61
2022/07/04 01:23:21;;;;;;;6.13;4.63;;;;;;;19.56;51.07;99094.63;5053508;28;20045;-61
2022/07/04 01:25:49;;;;;;;7.10;4.85;;;;;;;19.78;50.64;99101.94;5054381;28;20509;-60
2022/07/04 01:28:20;;;;;;;7.20;4.50;;;;;;;20.00;50.21;99095.78;5043175;28;20511;-61
2022/07/04 01:30:45;;;;;;;;;;;;;;;20.25;49.78;99099.72;5035122;28;20457;-61
2022/07/04 01:33:11;;;;;;;5.28;4.75;;;;;;;20.42;49.45;99099.81;5034855;28;19924;-61
2022/07/04 01:35:37;;;;;;;6.10;4.93;;;;;;;20.58;48.80;99099.41;5034504;28;20118;-60
2022/07/04 01:38:03;;;;;;;5.93;4.13;;;;;;;20.77;48.35;99094.59;5051686;28;20052;-59
2022/07/04 01:40:29;;;;;;;6.45;4.32;;;;;;;20.94;47.66;99093.84;5054457;28;20175;-61
2022/07/04 01:42:54;;;;;;;7.13;4.93;;;;;;;21.17;47.79;99093.72;5053079;28;20120;-60
2022/07/04 01:45:20;;;;;;;6.22;4.82;;;;;;;21.44;47.42;99087.28;5047784;28;20585;-60
2022/07/04 01:47:46;;;;;;;5.65;4.78;;;;;;;21.72;46.81;99093.97;5042555;28;20040;-60
2022/07/04 01:50:12;;;;;;;8.05;4.95;;;;;;;21.97;46.39;99092.34;5053945;28;20088;-61
2022/07/04 01:52:39;;;;;;;8.05;5.00;;;;;;;22.21;45.60;99093.78;5054170;28;20041;-60
2022/07/04 01:55:06;;;;;;;5.75;5.25;;;;;;;22.58;45.09;99088.72;5039536;28;20053;-61
2022/07/04 01:57:31;;;;;;;7.43;5.20;;;;;;;22.79;44.89;99086.84;5034313;28;20136;-61
2022/07/04 02:02:41;;;;;;;6.28;5.50;;;;;;;23.23;43.81;99092.03;5033742;28;20133;-62
2022/07/04 02:05:07;;;;;;;8.25;5.47;;;;;;;23.42;43.06;99094.31;5034055;28;20528;-61
2022/07/04 02:07:33;;;;;;;5.85;5.28;;;;;;;23.62;42.62;99096.22;5042384;28;20068;-59
2022/07/04 02:09:58;;;;;;;7.13;5.07;;;;;;;23.88;42.22;99106.81;5052398;28;20087;-59
2022/07/04 02:15:08;;;;;;;8.60;5.63;;;;;;;24.66;40.73;99099.81;5053671;28;20083;-61
2022/07/04 02:17:34;;;;;;;8.45;5.43;;;;;;;24.61;40.51;99103.53;5033989;28;20069;-60
2022/07/04 02:20:00;;;;;;;9.75;6.25;;;;;;;24.73;40.27;99100.03;5032561;28;20080;-60
2022/07/04 02:22:25;;;;;;;9.13;6.50;;;;;;;24.92;40.33;99107.63;5033846;28;20049;-60
2022/07/04 02:24:51;;;;;;;8.25;6.30;;;;;;;25.06;40.31;99107.25;5033493;28;20420;-60
2022/07/04 02:27:17;;;;;;;8.38;6.32;;;;;;;25.04;40.20;99102.19;5041603;28;20060;-62
2022/07/04 02:29:42;;;;;;;7.38;6.45;;;;;;;25.00;40.52;99106.72;5053461;28;20037;-60
2022/07/04 02:32:08;;;;;;;7.15;6.30;;;;;;;25.10;40.65;99110.88;5053393;28;20167;-60
2022/07/04 02:34:34;;;;;;;7.30;6.20;;;;;;;25.15;40.81;99106.06;5053097;28;20040;-61
2022/07/04 02:37:00;;;;;;;6.80;6.10;;;;;;;25.29;40.63;99111.09;5034428;28;20041;-60
2022/07/04 02:39:26;;;;;;;6.82;6.13;;;;;;;25.41;40.17;99110.28;5035763;28;20120;-61
2022/07/04 02:41:51;;;;;;;7.13;5.93;;;;;;;25.60;39.96;99118.59;5053217;28;20048;-60
2022/07/04 02:44:17;;;;;;;10.05;6.70;;;;;;;26.21;38.68;99111.38;5052928;28;20041;-60
2022/07/04 02:46:43;;;;;;;6.55;5.88;;;;;;;26.65;37.87;99114.84;5045591;28;20414;-61
2022/07/04 02:49:09;;;;;;;8.35;6.15;;;;;;;26.90;37.30;99120.88;5033189;28;20033;-60
2022/07/04 02:51:34;;;;;;;7.90;6.25;;;;;;;27.23;36.42;99113.47;5033229;28;20475;-60
2022/07/04 02:54:00;;;;;;;7.50;5.65;;;;;;;27.40;36.54;99111.13;5031606;28;20041;-61
2022/07/04 02:56:26;;;;;;;9.02;6.25;;;;;;;27.37;36.21;99111.84;5032900;28;20041;-60
2022/07/04 02:58:52;;;;;;;8.73;6.28;;;;;;;27.46;36.23;99117.09;5032735;28;20049;-60
2022/07/04 03:01:19;;;;;;;9.65;5.82;;;;;;;27.62;36.12;99122.47;5032620;28;20426;-61
2022/07/04 03:03:45;;;;;;;7.70;6.20;;;;;;;27.99;35.12;99120.13;5032859;28;20037;-60
2022/07/04 03:06:12;;;;;;;8.90;6.05;;;;;;;28.08;35.05;99128.84;5036885;28;20037;-61
2022/07/04 03:08:38;;;;;;;9.23;6.30;;;;;;;28.16;34.91;99126.28;5052426;28;20124;-61
2022/07/04 03:11:04;;;;;;;7.82;6.28;;;;;;;27.92;35.31;99124.66;5052721;28;20171;-60
2022/07/04 03:13:30;;;;;;;8.50;6.18;;;;;;;27.54;36.56;99126.19;5052774;28;20041;-60
2022/07/04 03:15:56;;;;;;;7.28;5.70;;;;;;;27.72;36.16;99129.28;5039305;28;20045;-62
2022/07/04 03:18:22;;;;;;;10.32;5.85;;;;;;;27.64;35.88;99131.06;5032709;28;20068;-62
2022/07/04 03:20:47;;;;;;;9.07;6.07;;;;;;;27.70;36.53;99128.84;5032258;28;20498;-62
2022/07/04 03:23:13;;;;;;;8.98;6.22;;;;;;;28.17;34.99;99123.16;5032838;28;20041;-63
2022/07/04 03:25:39;;;;;;;9.02;6.22;;;;;;;28.54;34.80;99125.41;5032107;28;20036;-61
2022/07/04 03:28:05;;;;;;;9.63;5.70;;;;;;;28.88;34.61;99131.00;5052556;28;20047;-60
2022/07/04 03:30:31;;;;;;;10.60;6.30;;;;;;;29.02;33.84;99130.44;5052321;28;20123;-60
2022/07/04 03:32:57;;;;;;;6.78;5.80;;;;;;;29.12;33.78;99125.19;5052383;28;20056;-60
2022/07/04 03:35:23;;;;;;;9.25;6.20;;;;;;;29.09;34.04;99131.38;5039883;28;20502;-59
2022/07/04 03:37:48;;;;;;;10.80;6.30;;;;;;;29.46;34.09;99138.91;5031558;28;20507;-61
2022/07/04 03:40:14;;;;;;;7.03;6.13;;;;;;;29.60;33.64;99139.06;5031929;28;20144;-60
2022/07/04 03:42:40;;;;;;;9.43;5.97;;;;;;;29.70;33.90;99143.13;5032259;28;20075;-60
2022/07/04 03:45:06;;;;;;;7.60;5.75;;;;;;;29.80;33.84;99147.94;5031912;28;20091;-61
2022/07/04 03:47:32;;;;;;;10.65;6.38;;;;;;;29.74;34.16;99145.88;5051983;28;20049;-59
2022/07/04 03:49:58;;;;;;;11.20;5.88;;;;;;;29.57;34.61;99137.09;5051626;28;20040;-61
2022/07/04 03:52:24;;;;;;;8.15;6.32;;;;;;;29.62;34.38;99142.25;5050466;28;20513;-60
2022/07/04 03:54:50;;;;;;;9.63;6.18;;;;;;;29.60;34.97;99144.53;5042898;28;20041;-62
2022/07/04 03:57:15;;;;;;;9.88;6.10;;;;;;;29.83;34.67;99152.66;5031971;28;20053;-61
2022/07/04 03:59:41;;;;;;;7.65;5.93;;;;;;;29.75;34.30;99152.94;5031389;28;20392;-60
2022/07/04 04:02:07;;;;;;;7.80;6.30;;;;;;;29.48;35.52;99144.78;5031857;28;20136;-60
2022/07/04 04:07:17;;;;;;;13.15;6.20;;;;;;;29.67;35.06;99152.06;5031228;28;20554;-61
2022/07/04 04:09:42;;;;;;;8.98;6.43;;;;;;;29.63;35.25;99135.63;5031490;28;20037;-60
2022/07/04 04:12:08;;;;;;;9.45;6.93;;;;;;;29.29;35.88;99153.09;5030241;28;20072;-59
2022/07/04 04:14:34;;;;;;;7.50;6.18;;;;;;;29.47;35.57;99150.59;5039466;28;20090;-60
2022/07/04 04:16:59;;;;;;;9.95;6.65;;;;;;;29.78;34.55;99144.00;5050039;28;20464;-61
2022/07/04 04:19:25;;;;;;;9.93;6.28;;;;;;;29.30;36.20;99146.50;5051541;28;20080;-62
2022/07/04 04:21:51;;;;;;;7.78;6.63;;;;;;;29.49;36.23;99149.06;5051578;28;20471;-61
2022/07/04 04:24:17;;;;;;;8.77;6.40;;;;;;;29.73;35.51;99145.09;5051221;28;20052;-60
2022/07/04 04:26:42;;;;;;;8.63;6.72;;;;;;;30.02;34.71;99139.97;5033292;28;20049;-61
2022/07/04 04:29:08;;;;;;;8.52;6.60;;;;;;;30.28;34.58;99142.63;5031273;28;20076;-60
2022/07/04 04:31:34;;;;;;;9.88;6.28;;;;;;;30.39;34.54;99147.44;5032222;28;20095;-60
2022/07/04 04:33:59;;;;;;;12.43;6.68;;;;;;;30.42;34.88;99136.53;5029889;28;20048;-63
2022/07/04 04:36:25;;;;;;;7.43;6.60;;;;;;;30.48;34.35;99140.47;5031900;28;20041;-60
2022/07/04 04:38:51;;;;;;;10.93;6.53;;;;;;;30.00;35.06;99137.63;5032125;28;20060;-60
2022/07/04 04:41:16;;;;;;;7.38;6.68;;;;;;;29.94;35.38;99144.56;5031986;28;20114;-61
2022/07/04 04:43:42;;;;;;;11.73;6.90;;;;;;;29.81;35.33;99151.47;5042326;28;20045;-60
2022/07/04 04:46:09;;;;;;;7.57;6.47;;;;;;;30.03;35.38;99144.28;5032237;28;20041;-61
2022/07/04 04:48:34;;;;;;;7.18;6.57;;;;;;;29.90;35.15;99157.41;5031631;28;20570;-59
2022/07/04 04:51:00;;;;;;;8.25;6.35;;;;;;;29.57;35.68;99153.47;5042758;28;20132;-59
2022/07/04 04:53:26;;;;;;;7.20;6.50;;;;;;;29.43;36.40;99154.06;5038410;28;20495;-66
2022/07/04 04:55:53;;;;;;;9.50;7.20;;;;;;;29.51;36.59;99146.78;5047932;28;20167;-66
2022/07/04 04:58:22;;;;;;;11.85;7.43;;;;;;;29.81;36.33;99154.19;5042172;28;20057;-63
2022/07/04 05:00:49;;;;;;;11.95;7.60;;;;;;;29.97;36.30;99156.69;5034643;28;20514;-64
2022/07/04 05:03:18;;;;;;;11.55;7.85;;;;;;;30.24;35.71;99154.72;5042212;28;20045;-61
2022/07/04 05:05:45;;;;;;;7.93;6.70;;;;;;;30.26;35.24;99146.91;5048562;28;20118;-61
2022/07/04 05:08:12;;;;;;;11.35;7.03;;;;;;;30.44;34.98;99156.06;5035738;28;20072;-63
2022/07/04 05:10:38;;;;;;;8.07;7.03;;;;;;;30.18;35.12;99146.03;5034576;28;20046;-63
2022/07/04 05:13:04;;;;;;;8.27;7.47;;;;;;;30.20;35.09;99149.16;5043665;28;20044;-64
2022/07/04 05:15:30;;;;;;;7.72;6.57;;;;;;;29.86;36.50;99153.88;5037141;28;20049;-62
2022/07/04 05:17:56;;;;;;;9.00;6.95;;;;;;;29.61;37.01;99154.28;5038677;28;20435;-61
2022/07/04 05:20:21;;;;;;;7.53;6.43;;;;;;;29.51;37.26;99149.50;5054359;28;20126;-64
2022/07/04 05:22:47;;;;;;;10.43;6.80;;;;;;;29.57;37.11;99152.69;5053311;28;20063;-61
2022/07/04 05:25:13;;;;;;;7.95;7.00;;;;;;;29.37;36.91;99160.22;5053077;28;20487;-61
2022/07/04 05:27:39;;;;;;;10.75;7.40;;;;;;;28.96;37.15;99149.84;5054321;28;20331;-63
2022/07/04 05:30:06;;;;;;;12.55;7.20;;;;;;;28.80;37.81;99156.63;5050400;28;20379;-63
2022/07/04 05:32:32;;;;;;;8.23;7.07;;;;;;;28.70;38.35;99156.06;5030400;28;20045;-61
2022/07/04 05:34:58;;;;;;;8.50;6.82;;;;;;;28.80;38.69;99162.06;5029979;28;20499;-61
2022/07/04 05:37:24;;;;;;;9.50;6.93;;;;;;;28.75;38.58;99161.22;5047848;28;20044;-61
2022/07/04 05:39:49;;;;;;;9.02;7.07;;;;;;;28.77;38.62;99152.69;5047751;28;20495;-62
2022/07/04 05:42:15;;;;;;;9.48;6.70;;;;;;;28.54;38.52;99149.94;5031417;28;20037;-60
2022/07/04 05:44:41;;;;;;;7.82;7.03;;;;;;;28.42;39.14;99153.63;5035588;28;20051;-65
2022/07/04 05:47:07;;;;;;;8.32;6.45;;;;;;;28.41;39.24;99159.41;5041823;28;20044;-61
2022/07/04 05:49:33;;;;;;;7.90;7.05;;;;;;;28.25;38.31;99154.06;5031776;28;20048;-64
2022/07/04 05:51:59;;;;;;;10.05;6.88;;;;;;;28.23;38.80;99165.31;5027779;28;20044;-61
2022/07/04 05:54:25;;;;;;;7.95;7.07;;;;;;;28.12;38.88;99158.09;5032287;28;20041;-62
2022/07/04 05:56:51;;;;;;;7.95;7.03;;;;;;;27.92;39.74;99157.34;5045561;28;20044;-64
2022/07/04 05:59:17;;;;;;;8.15;6.57;;;;;;;27.93;38.90;99156.19;5049343;28;20823;-62
2022/07/04 06:01:42;;;;;;;8.02;7.32;;;;;;;27.98;39.14;99151.25;5048767;28;20549;-60
2022/07/04 06:04:08;;;;;;;9.57;6.63;;;;;;;28.10;39.40;99152.25;5034904;28;20037;-60
2022/07/04 06:06:34;;;;;;;9.20;7.50;;;;;;;28.14;39.67;99153.09;5032159;28;20049;-62
2022/07/04 06:09:00;;;;;;;7.93;6.95;;;;;;;27.92;39.76;99143.72;5032171;28;20042;-61
2022/07/04 06:11:27;;;;;;;7.40;6.55;;;;;;;27.73;38.51;99156.16;5032884;28;20037;-63
2022/07/04 06:13:52;;;;;;;9.00;7.28;;;;;;;27.64;39.55;99150.91;5034166;28;20041;-61
2022/07/04 06:16:18;;;;;;;7.97;7.18;;;;;;;27.55;39.53;99149.53;5031316;28;20522;-61
2022/07/04 06:18:44;;;;;;;9.80;7.55;;;;;;;27.55;40.86;99152.25;5031469;28;20493;-62
2022/07/04 06:21:10;;;;;;;7.57;6.80;;;;;;;27.62;39.34;99152.44;5051406;28;20033;-62
2022/07/04 06:23:36;;;;;;;7.32;6.63;;;;;;;27.53;37.40;99143.66;5050240;28;20041;-62
2022/07/04 06:26:02;;;;;;;6.18;5.57;;;;;;;27.60;35.47;99146.56;5048909;28;20072;-62
2022/07/04 06:28:29;;;;;;;6.72;6.03;;;;;;;27.43;35.23;99150.47;5030706;28;20049;-62
2022/07/04 06:30:54;;;;;;;6.15;5.50;;;;;;;27.50;34.65;99147.09;5031791;28;20141;-64
2022/07/04 06:33:20;;;;;;;7.22;6.03;;;;;;;27.55;34.38;99135.94;5037249;28;20131;-62
2022/07/04 06:35:48;;;;;;;7.13;6.00;;;;;;;27.55;36.14;99138.66;5047714;28;20084;-65
2022/07/04 06:38:34;;;;;;;7.13;6.22;;;;;;;27.56;35.69;99134.78;5050858;28;20044;-67
2022/07/04 06:41:00;;;;;;;7.65;6.07;;;;;;;27.60;36.18;99138.38;5032980;28;20049;-65
2022/07/04 06:43:26;;;;;;;7.93;6.63;;;;;;;27.66;36.21;99142.38;5051714;28;20044;-63
2022/07/04 06:45:52;;;;;;;6.88;6.18;;;;;;;27.71;36.34;99142.13;5049915;28;20041;-63
2022/07/04 06:48:18;;;;;;;8.30;7.10;;;;;;;27.64;37.69;99133.78;5052585;28;20045;-63
2022/07/04 06:50:44;;;;;;;7.47;6.18;;;;;;;27.71;37.87;99133.13;5049047;28;20041;-66
2022/07/04 06:53:10;;;;;;;10.98;7.15;;;;;;;27.79;37.44;99137.63;5033816;28;20052;-65
2022/07/04 06:55:39;;;;;;;8.70;6.85;;;;;;;27.76;37.45;99136.38;5032746;28;20507;-66
2022/07/04 06:58:06;;;;;;;8.27;7.47;;;;;;;27.76;37.82;99132.84;5030157;28;20392;-65
2022/07/04 07:00:32;;;;;;;7.38;6.63;;;;;;;27.69;36.35;99135.44;5043216;28;20537;-63
2022/07/04 07:02:58;;;;;;;7.30;6.10;;;;;;;27.64;36.29;99131.06;5052725;28;20049;-62
2022/07/04 07:05:28;;;;;;;7.03;6.28;;;;;;;27.61;36.72;99131.78;5044196;28;20400;-62
2022/07/04 07:07:55;;;;;;;7.70;6.43;;;;;;;27.60;36.72;99133.72;5031713;28;20059;-61
2022/07/04 07:10:21;;;;;;;8.75;6.40;;;;;;;27.54;36.72;99126.97;5030809;28;20045;-62
2022/07/04 07:12:47;;;;;;;7.85;6.10;;;;;;;27.57;36.85;99130.94;5032257;28;20100;-62
2022/07/04 07:15:13;;;;;;;7.05;6.40;;;;;;;27.61;37.07;99131.78;5031990;28;20136;-61
2022/07/04 07:17:39;;;;;;;11.70;6.45;;;;;;;27.63;37.03;99138.44;5031986;28;20128;-61
2022/07/04 07:20:06;;;;;;;7.07;6.38;;;;;;;27.70;36.04;99135.06;5031675;28;20089;-62
2022/07/04 07:22:32;;;;;;;9.00;6.63;;;;;;;27.66;36.43;99136.94;5030720;28;20056;-61
2022/07/04 07:24:57;;;;;;;7.88;6.88;;;;;;;27.80;36.93;99128.31;5032248;28;20045;-62
2022/07/04 07:27:23;;;;;;;8.00;6.18;;;;;;;27.71;36.65;99135.84;5030963;28;20042;-62
2022/07/04 07:29:49;;;;;;;7.97;6.32;;;;;;;27.69;36.51;99141.69;5031258;28;20133;-61
2022/07/04 07:32:15;;;;;;;7.40;6.63;;;;;;;27.67;36.88;99124.13;5031052;28;20107;-62
2022/07/04 07:34:40;;;;;;;7.90;6.60;;;;;;;27.88;37.02;99127.28;5013031;28;20045;-61
2022/07/04 07:37:07;;;;;;;7.18;6.00;;;;;;;27.79;36.15;99140.34;5030869;28;20534;-61
2022/07/04 07:39:32;;;;;;;7.63;6.25;;;;;;;27.76;36.67;99141.03;5031560;28;20403;-63
2022/07/04 07:41:58;;;;;;;6.57;5.90;;;;;;;27.62;36.34;99145.06;5032054;28;20045;-62
2022/07/04 07:44:24;;;;;;;7.80;6.35;;;;;;;27.61;36.00;99131.78;5030632;28;20127;-63
2022/07/04 07:46:50;;;;;;;8.88;6.57;;;;;;;27.67;36.15;99130.34;5031460;28;20038;-62
2022/07/04 07:49:16;;;;;;;8.30;6.30;;;;;;;27.75;36.17;99123.13;5031875;28;20046;-62
2022/07/04 07:51:42;;;;;;;6.55;5.85;;;;;;;27.91;34.59;99125.78;5031458;28;20045;-64
2022/07/04 07:54:07;;;;;;;12.45;6.55;;;;;;;27.89;35.99;99128.09;5031619;28;20048;-64
2022/07/04 07:56:33;;;;;;;6.78;5.85;;;;;;;27.95;35.10;99138.34;5031681;28;20044;-62
2022/07/04 07:58:59;;;;;;;7.78;5.88;;;;;;;27.98;34.78;99136.84;5031181;28;20068;-61
2022/07/04 08:01:25;;;;;;;8.02;6.57;;;;;;;27.99;34.50;99133.75;5031649;28;20092;-62
2022/07/04 08:06:34;;;;;;;6.88;6.18;;;;;;;27.85;34.24;99131.53;5031656;28;20069;-60
2022/07/04 08:09:01;;;;;;;6.45;5.55;;;;;;;27.95;35.26;99137.56;5031427;28;20075;-61
2022/07/04 08:11:27;;;;;;;7.35;6.10;;;;;;;28.05;34.11;99129.56;5031153;28;20041;-62
2022/07/04 08:13:53;;;;;;;8.63;5.15;;;;;;;28.11;33.23;99132.00;5031385;28;20052;-62
2022/07/04 08:16:19;;;;;;;5.80;5.18;;;;;;;28.17;33.54;99133.28;5031523;28;20179;-62
2022/07/04 08:18:44;;;;;;;7.05;5.43;;;;;;;28.16;33.24;99137.16;5031606;28;20071;-62
2022/07/04 08:21:10;;;;;;;5.75;5.25;;;;;;;28.17;33.06;99155.09;5031139;28;20034;-62
2022/07/04 08:23:36;;;;;;;5.57;5.07;;;;;;;28.12;32.37;99137.09;5030899;28;20471;-62
2022/07/04 08:26:02;;;;;;;7.88;5.18;;;;;;;28.23;31.29;99127.16;5031262;28;20103;-61
2022/07/04 08:28:28;;;;;;;5.88;5.32;;;;;;;28.15;32.19;99139.09;5031476;28;20136;-61
2022/07/04 08:30:54;;;;;;;6.57;5.55;;;;;;;28.10;32.51;99125.78;5031361;28;20121;-62
2022/07/04 08:33:20;;;;;;;6.82;5.40;;;;;;;28.05;32.33;99126.84;5031520;28;20049;-62
2022/07/04 08:35:46;;;;;;;6.03;5.22;;;;;;;27.94;32.77;99125.06;5031169;28;20115;-64
2022/07/04 08:38:11;;;;;;;7.85;5.38;;;;;;;28.04;32.32;99149.00;5029382;28;20453;-64
2022/07/04 08:40:37;;;;;;;8.45;5.22;;;;;;;28.00;34.02;99139.97;5027214;28;20076;-65
2022/07/04 08:43:04;;;;;;;6.25;5.63;;;;;;;28.08;33.48;99133.50;5029067;28;20513;-64
2022/07/04 08:45:33;;;;;;;5.88;5.20;;;;;;;28.09;32.71;99118.75;5029263;28;20045;-64
2022/07/04 08:48:07;;;;;;;6.07;4.95;;;;;;;28.18;31.98;99122.03;5029179;28;20483;-65
2022/07/04 08:50:35;;;;;;;7.50;5.05;;;;;;;28.06;32.18;99124.91;5028817;28;20038;-63
2022/07/04 08:53:12;;;;;;;6.30;5.35;;;;;;;27.96;32.27;99125.50;5027929;28;20133;-65
2022/07/04 08:58:29;;;;;;;5.03;4.45;;;;;;;27.97;31.68;99116.97;5028214;28;20123;-64
2022/07/04 09:00:57;;;;;;;6.57;5.32;;;;;;;28.06;31.62;99119.44;5027838;28;20133;-65
2022/07/04 09:03:24;;;;;;;7.25;5.10;;;;;;;28.05;31.89;99123.34;5028044;28;20043;-65
2022/07/04 09:05:50;;;;;;;5.90;5.28;;;;;;;28.08;31.67;99130.78;5030222;28;20159;-68
2022/07/04 09:08:16;;;;;;;6.20;5.20;;;;;;;28.05;32.12;99123.34;5029315;28;20542;-66
2022/07/04 09:10:42;;;;;;;6.40;5.07;;;;;;;28.14;31.93;99112.22;5028798;28;20491;-64
2022/07/04 09:13:11;;;;;;;6.35;5.28;;;;;;;28.21;32.26;99118.59;5026664;28;20514;-66
2022/07/04 09:15:37;;;;;;;6.53;5.72;;;;;;;28.26;31.90;99112.81;5026702;28;20049;-63
2022/07/04 09:18:03;;;;;;;5.90;5.20;;;;;;;28.35;32.75;99117.25;5026733;28;20049;-64
2022/07/04 09:20:31;;;;;;;9.85;6.50;;;;;;;28.38;33.67;99127.44;5026241;28;20057;-63
2022/07/04 09:22:58;;;;;;;9.40;6.35;;;;;;;28.38;32.72;99114.59;5028608;28;20076;-63
2022/07/04 09:25:25;;;;;;;6.53;5.93;;;;;;;28.27;33.07;99119.09;5029528;28;20076;-62
2022/07/04 09:27:56;;;;;;;6.97;6.30;;;;;;;28.21;33.07;99120.53;4978644;28;20110;-63
2022/07/04 09:30:26;;;;;;;7.18;5.53;;;;;;;28.12;34.09;99123.50;5027300;28;20038;-64
2022/07/04 09:32:59;;;;;;;9.02;5.30;;;;;;;28.10;33.47;99119.53;5028024;28;20080;-64
2022/07/04 09:35:29;;;;;;;6.05;5.55;;;;;;;28.24;33.66;99109.69;5029514;28;20041;-62
2022/07/04 09:38:04;;;;;;;6.53;5.80;;;;;;;28.21;33.35;99106.91;4980957;28;20049;-62
2022/07/04 09:40:32;;;;;;;8.40;6.53;;;;;;;28.25;33.74;99108.53;5034239;28;20041;-62
2022/07/04 09:43:00;;;;;;;6.82;5.80;;;;;;;28.41;33.82;99107.63;5033682;28;20077;-62
2022/07/04 09:45:26;;;;;;;10.55;7.10;;;;;;;28.37;34.08;99106.78;5032294;28;20052;-62
2022/07/04 09:47:57;;;;;;;7.60;6.90;;;;;;;28.35;34.20;99104.41;5033929;28;20406;-61
2022/07/04 09:50:25;;;;;;;7.05;6.10;;;;;;;28.30;33.69;99110.19;5033457;28;20603;-62
2022/07/04 09:53:00;;;;;;;6.88;6.18;;;;;;;28.26;33.52;99106.59;5033990;28;20517;-62
2022/07/04 09:55:34;;;;;;;7.53;6.57;;;;;;;28.34;34.18;99102.06;5033859;28;20461;-62
2022/07/04 09:58:02;;;;;;;7.03;6.32;;;;;;;28.39;33.75;99099.81;5032261;28;20045;-62
2022/07/04 10:00:33;;;;;;;7.50;6.03;;;;;;;28.49;33.64;99104.69;5034166;28;20542;-62
2022/07/04 10:03:19;;;;;;;10.43;6.22;;;;;;;28.54;34.71;99089.97;5033831;28;20053;-62
2022/07/04 10:05:46;;;;;;;10.63;6.93;;;;;;;28.58;33.72;99090.81;5032073;28;20462;-61
2022/07/04 10:08:12;;;;;;;6.80;5.97;;;;;;;28.56;33.45;99089.59;5033170;28;20132;-62
2022/07/04 10:11:01;;;;;;;7.40;5.70;;;;;;;28.51;34.22;99087.97;5033366;28;20502;-60
2022/07/04 10:13:35;;;;;;;7.35;6.30;;;;;;;28.52;33.84;99084.09;5005823;28;20083;-62
2022/07/04 10:16:01;;;;;;;8.63;6.70;;;;;;;28.58;34.39;99084.56;5033828;28;20037;-62
2022/07/04 10:18:27;;;;;;;6.45;5.85;;;;;;;28.59;34.09;99070.59;5033008;28;20046;-63
2022/07/04 10:20:54;;;;;;;6.20;5.38;;;;;;;28.61;33.25;99086.56;5033886;28;20037;-64
2022/07/04 10:23:21;;;;;;;8.52;5.78;;;;;;;28.49;33.67;99093.78;5032961;28;20112;-62
2022/07/04 10:25:48;;;;;;;6.30;5.63;;;;;;;28.44;33.91;99077.75;5033845;28;20494;-61
2022/07/04 10:28:14;;;;;;;7.18;5.50;;;;;;;28.39;33.64;99078.00;5032135;28;20053;-63
2022/07/04 10:30:41;;;;;;;10.38;5.82;;;;;;;28.47;34.16;99071.56;5030423;28;20041;-61
2022/07/04 10:33:09;;;;;;;7.18;5.50;;;;;;;28.45;33.14;99073.84;5030634;28;20052;-61
2022/07/04 10:35:54;;;;;;;8.65;5.40;;;;;;;28.43;32.91;99072.63;5031266;28;20045;-60
2022/07/04 10:38:30;;;;;;;6.65;5.95;;;;;;;28.34;33.08;99074.81;5031728;28;20122;-61
2022/07/04 10:40:57;;;;;;;6.13;5.45;;;;;;;28.27;33.02;99072.75;5033223;28;20087;-61
2022/07/04 10:43:40;;;;;;;6.38;5.75;;;;;;;28.26;33.42;99074.66;5041042;28;20091;-62
2022/07/04 10:46:15;;;;;;;6.25;5.38;;;;;;;28.34;33.27;99059.22;5031893;28;20367;-61
2022/07/04 10:49:04;;;;;;;11.77;6.15;;;;;;;28.49;33.39;99068.47;5030988;28;20045;-61
2022/07/04 10:52:07;;;;;;;6.57;5.97;;;;;;;28.53;33.85;99061.91;5031881;28;20041;-61
2022/07/04 10:54:38;;;;;;;6.28;5.68;;;;;;;28.48;32.95;99077.78;5031096;28;20099;-61
2022/07/04 10:57:24;;;;;;;8.85;5.88;;;;;;;28.44;33.62;99061.38;5046038;28;20405;-61
2022/07/04 10:59:57;;;;;;;7.22;6.53;;;;;;;28.47;33.00;99062.56;5052830;28;20053;-62
2022/07/04 11:02:32;;;;;;;6.95;6.35;;;;;;;28.49;33.17;99063.78;5053210;28;20120;-61
2022/07/04 11:05:05;;;;;;;6.80;5.97;;;;;;;28.56;32.71;99059.59;5045102;28;20045;-61
2022/07/04 11:07:37;;;;;;;6.18;5.57;;;;;;;28.52;33.16;99056.81;5032232;28;20045;-63
2022/07/04 11:10:30;;;;;;;7.22;6.10;;;;;;;28.61;33.07;99049.16;5045364;28;20045;-60
2022/07/04 11:12:55;;;;;;;5.95;5.35;;;;;;;28.72;33.09;99046.63;5051182;28;20056;-63
2022/07/04 11:15:27;;;;;;;6.03;5.43;;;;;;;28.71;33.11;99058.69;5052256;28;20041;-60
2022/07/04 11:17:54;;;;;;;6.40;5.80;;;;;;;28.78;32.67;99049.81;5039289;28;20137;-60
2022/07/04 11:20:20;;;;;;;6.70;5.93;;;;;;;28.82;31.96;99051.44;5052455;28;20049;-61
2022/07/04 11:22:46;;;;;;;6.75;6.05;;;;;;;28.85;31.66;99041.72;5052265;28;20509;-61
2022/07/04 11:25:13;;;;;;;8.75;6.28;;;;;;;28.92;31.78;99044.56;5049136;28;20068;-61
2022/07/04 11:27:39;;;;;;;8.27;5.80;;;;;;;28.98;31.92;99037.63;5047624;28;20111;-63
2022/07/04 11:30:05;;;;;;;6.70;6.10;;;;;;;29.08;31.76;99037.00;5040105;28;20041;-62
2022/07/04 11:32:33;;;;;;;7.60;6.00;;;;;;;29.18;32.43;99041.06;5051854;28;20517;-62
2022/07/04 11:34:58;;;;;;;8.23;6.35;;;;;;;29.17;32.13;99036.72;5036252;28;20143;-64
2022/07/04 11:37:24;;;;;;;6.78;5.43;;;;;;;29.21;32.06;99032.13;5031683;28;20457;-65
2022/07/04 11:45:02;;;;;;;7.65;5.88;;;;;;;29.20;31.36;99034.03;5030221;28;20045;-63
2022/07/04 11:45:24;;;;;;;5.70;5.25;;;;;;;29.14;31.45;99038.25;5036340;28;19921;-61
2022/07/04 11:47:50;;;;;;;9.85;6.50;;;;;;;29.18;32.11;99033.66;5029315;28;20049;-62
2022/07/04 11:50:18;;;;;;;6.30;5.65;;;;;;;29.22;31.79;99028.22;5034764;28;20041;-62